createdAt,value
2022-11-03T00:00:41.592Z,47.55
2022-11-03T00:06:02.237Z,47.35
2022-11-03T00:11:04.923Z,47.36
2022-11-03T00:16:08.147Z,47.10
2022-11-03T00:21:13.432Z,47.15
2022-11-03T00:26:23.435Z,47.24
2022-11-03T00:31:30.559Z,47.49
2022-11-03T00:36:35.885Z,47.66
2022-11-03T00:41:38.389Z,47.78
2022-11-03T00:46:40.240Z,47.69
2022-11-03T00:51:42.084Z,47.74
2022-11-03T00:56:44.497Z,47.89
2022-11-03T01:01:47.775Z,48.23
2022-11-03T01:06:53.632Z,48.87
2022-11-03T01:12:03.067Z,48.28
2022-11-03T01:17:14.295Z,48.28
2022-11-03T01:22:17.589Z,48.59
2022-11-03T01:27:20.968Z,48.28
2022-11-03T01:32:22.819Z,48.01
2022-11-03T01:37:25.423Z,48.20
2022-11-03T01:42:27.221Z,48.60
2022-11-03T01:47:35.264Z,48.92
2022-11-03T01:52:51.488Z,48.75
2022-11-03T01:57:59.946Z,48.28
2022-11-03T02:03:02.157Z,48.79
2022-11-03T02:13:24.607Z,48.54
2022-11-03T02:18:28.791Z,48.08
2022-11-03T02:23:39.986Z,48.33
2022-11-03T02:28:41.933Z,48.89
2022-11-03T02:33:49.043Z,48.89
2022-11-03T02:39:02.857Z,48.83
2022-11-03T02:44:14.661Z,49.19
2022-11-03T02:49:16.543Z,48.53
2022-11-03T02:54:26.119Z,49.03
2022-11-03T02:59:32.280Z,49.52
2022-11-03T03:04:48.773Z,49.69
2022-11-03T03:10:00.429Z,49.41
2022-11-03T03:15:04.272Z,50.34
2022-11-03T03:20:14.609Z,50.69
2022-11-03T03:25:43.626Z,50.00
2022-11-03T03:30:48.421Z,50.24
2022-11-03T03:35:52.872Z,49.63
2022-11-03T03:40:57.574Z,49.93
2022-11-03T03:46:07.290Z,49.54
2022-11-03T03:51:10.263Z,49.70
2022-11-03T03:56:12.146Z,49.54
2022-11-03T04:01:13.988Z,50.18
2022-11-03T04:06:15.866Z,49.90
2022-11-03T04:11:36.217Z,49.97
2022-11-03T04:16:56.414Z,49.75
2022-11-03T04:22:16.737Z,50.54
2022-11-03T04:27:27.458Z,50.74
2022-11-03T04:32:30.389Z,50.18
2022-11-03T04:37:32.176Z,49.93
2022-11-03T04:42:35.571Z,50.25
2022-11-03T04:47:37.361Z,50.13
2022-11-03T04:52:39.100Z,50.50
2022-11-03T04:57:40.871Z,50.43
2022-11-03T05:02:43.676Z,50.42
2022-11-03T05:07:48.397Z,50.70
2022-11-03T05:12:51.510Z,50.46
2022-11-03T05:17:53.347Z,50.83
2022-11-03T05:22:55.096Z,50.42
2022-11-03T05:27:56.891Z,51.30
2022-11-03T05:32:59.026Z,51.45
2022-11-03T05:38:03.434Z,51.72
2022-11-03T05:43:09.705Z,51.08
2022-11-03T05:48:19.840Z,51.26
2022-11-03T05:53:29.890Z,51.33
2022-11-03T05:58:40.236Z,51.55
2022-11-03T06:03:42.219Z,52.11
2022-11-03T06:08:46.097Z,51.42
2022-11-03T06:13:48.269Z,51.60
2022-11-03T06:18:50.072Z,51.79
2022-11-03T06:23:55.197Z,51.73
2022-11-03T06:28:57.193Z,51.34
2022-11-03T06:33:59.464Z,51.92
2022-11-03T06:39:09.777Z,51.36
2022-11-03T06:44:24.874Z,51.57
2022-11-03T06:49:35.049Z,51.06
2022-11-03T06:54:38.061Z,51.62
2022-11-03T06:59:39.973Z,51.12
2022-11-03T07:04:41.815Z,50.85
2022-11-03T07:09:44.000Z,50.83
2022-11-03T07:14:46.582Z,51.03
2022-11-03T07:19:48.627Z,51.05
2022-11-03T07:24:55.638Z,51.16
2022-11-03T07:30:11.655Z,50.85
2022-11-03T07:35:53.292Z,50.90
2022-11-03T07:40:58.047Z,50.57
2022-11-03T07:46:01.994Z,50.49
2022-11-03T07:51:22.360Z,50.16
2022-11-03T07:56:33.131Z,50.08
2022-11-03T08:01:44.941Z,50.09
2022-11-03T08:06:47.255Z,49.52
2022-11-03T08:11:50.536Z,49.45
2022-11-03T08:16:52.340Z,49.02
2022-11-03T08:21:54.149Z,48.54
2022-11-03T08:26:56.321Z,48.54
2022-11-03T08:31:58.202Z,48.27
2022-11-03T08:36:59.993Z,48.46
2022-11-03T08:42:01.787Z,48.00
2022-11-03T08:47:03.589Z,47.85
2022-11-03T08:52:05.484Z,47.23
2022-11-03T08:57:07.350Z,46.54
2022-11-03T09:02:09.378Z,46.09
2022-11-03T09:07:11.197Z,45.82
2022-11-03T09:12:13.100Z,45.67
2022-11-03T09:17:14.986Z,45.36
2022-11-03T09:22:16.909Z,44.76
2022-11-03T09:27:19.301Z,44.74
2022-11-03T09:32:23.588Z,43.75
2022-11-03T09:37:25.674Z,43.50
2022-11-03T09:42:27.571Z,43.07
2022-11-03T09:47:33.970Z,42.84
2022-11-03T09:52:37.274Z,42.12
2022-11-03T09:57:39.094Z,42.32
2022-11-03T10:02:43.382Z,41.66
2022-11-03T10:07:45.767Z,41.50
2022-11-03T10:12:49.930Z,41.20
2022-11-03T10:17:52.441Z,40.89
2022-11-03T10:22:55.363Z,40.81
2022-11-03T10:28:14.864Z,40.62
2022-11-03T10:33:34.491Z,40.19
2022-11-03T10:38:36.518Z,39.88
2022-11-03T10:43:39.651Z,40.00
2022-11-03T10:48:41.871Z,39.20
2022-11-03T10:53:43.842Z,39.19
2022-11-03T10:58:45.899Z,39.18
2022-11-03T11:03:47.867Z,39.36
2022-11-03T11:08:59.628Z,39.36
2022-11-03T11:14:21.665Z,39.29
2022-11-03T11:19:25.279Z,39.33
2022-11-03T11:24:46.424Z,39.19
2022-11-03T11:29:48.292Z,38.89
2022-11-03T11:34:50.101Z,38.95
2022-11-03T11:39:51.887Z,39.05
2022-11-03T11:44:58.902Z,39.21
2022-11-03T11:50:06.819Z,39.27
2022-11-03T11:55:37.087Z,39.41
2022-11-03T12:00:51.459Z,39.39
2022-11-03T12:05:53.337Z,39.26
2022-11-03T12:10:58.299Z,39.27
2022-11-03T12:16:00.223Z,39.26
2022-11-03T12:21:09.892Z,39.22
2022-11-03T12:26:16.070Z,39.12
2022-11-03T12:31:18.071Z,39.00
2022-11-03T12:36:19.885Z,39.08
2022-11-03T12:41:24.507Z,38.91
2022-11-03T12:46:26.713Z,38.99
2022-11-03T12:51:28.504Z,38.55
2022-11-03T12:56:30.284Z,38.19
2022-11-03T13:01:33.404Z,37.42
2022-11-03T13:06:35.429Z,36.73
2022-11-03T13:11:56.109Z,35.84
2022-11-03T13:16:57.928Z,35.46
2022-11-03T13:22:00.098Z,35.24
2022-11-03T13:27:01.977Z,35.07
2022-11-03T13:32:04.789Z,34.93
2022-11-03T13:37:06.704Z,34.87
2022-11-03T13:42:08.596Z,34.67
2022-11-03T13:47:11.892Z,35.09
2022-11-03T13:52:14.105Z,35.78
2022-11-03T14:07:59.454Z,37.78
2022-11-03T14:13:01.237Z,38.70
2022-11-03T14:18:03.053Z,39.51
2022-11-03T14:23:04.951Z,40.47
2022-11-03T14:28:07.194Z,41.52
2022-11-03T14:33:09.886Z,41.82
2022-11-03T14:38:11.936Z,42.63
2022-11-03T14:43:13.808Z,43.47
2022-11-03T14:48:15.617Z,43.54
2022-11-03T14:53:17.536Z,43.74
2022-11-03T14:58:19.340Z,44.15
2022-11-03T15:03:21.150Z,44.16
2022-11-03T15:08:24.014Z,44.92
2022-11-03T15:13:25.836Z,44.84
2022-11-03T15:18:27.678Z,45.65
2022-11-03T15:28:51.413Z,46.38
2022-11-03T15:33:53.635Z,46.65
2022-11-03T15:38:55.440Z,47.25
2022-11-03T15:43:57.252Z,47.46
2022-11-03T15:48:59.079Z,47.53
2022-11-03T15:54:01.013Z,47.67
2022-11-03T15:59:02.843Z,47.80
2022-11-03T16:04:04.715Z,48.11
2022-11-03T16:09:06.533Z,48.21
2022-11-03T16:14:08.344Z,48.40
2022-11-03T16:19:10.499Z,48.91
2022-11-03T16:24:12.492Z,48.56
2022-11-03T16:29:14.286Z,48.67
2022-11-03T16:34:17.236Z,48.87
2022-11-03T16:39:19.123Z,48.73
2022-11-03T16:44:21.023Z,48.54
2022-11-03T16:49:22.962Z,48.76
2022-11-03T16:54:24.788Z,48.36
2022-11-03T16:59:26.648Z,48.48
2022-11-03T17:04:28.483Z,48.78
2022-11-03T17:09:30.301Z,48.93
2022-11-03T17:14:32.160Z,48.82
2022-11-03T17:19:33.971Z,49.00
2022-11-03T17:24:35.954Z,49.27
2022-11-03T17:29:44.584Z,49.39
2022-11-03T17:34:46.523Z,49.31
2022-11-03T17:39:48.461Z,49.54
2022-11-03T17:44:51.968Z,49.72
2022-11-03T17:49:53.765Z,49.79
2022-11-03T17:54:58.339Z,49.76
2022-11-03T18:00:01.090Z,49.95
2022-11-03T18:05:14.176Z,50.20
2022-11-03T18:10:19.065Z,50.14
2022-11-03T18:15:23.727Z,50.62
2022-11-03T18:20:29.337Z,50.77
2022-11-03T18:25:31.263Z,51.36
2022-11-03T18:30:33.300Z,51.40
2022-11-03T18:35:35.744Z,51.35
2022-11-03T18:40:38.891Z,51.47
2022-11-03T18:45:40.888Z,52.06
2022-11-03T18:50:43.324Z,51.67
2022-11-03T18:55:45.977Z,52.13
2022-11-03T19:00:48.679Z,52.04
2022-11-03T19:05:53.235Z,52.09
2022-11-03T19:10:57.229Z,51.77
2022-11-03T19:16:01.604Z,51.49
2022-11-03T19:21:11.762Z,51.59
2022-11-03T19:26:35.792Z,51.14
2022-11-03T19:31:42.886Z,51.77
2022-11-03T19:36:46.431Z,51.39
2022-11-03T19:42:06.817Z,51.69
2022-11-03T19:47:15.345Z,51.77
2022-11-03T19:52:18.257Z,52.51
2022-11-03T19:57:20.419Z,52.40
2022-11-03T20:02:23.800Z,52.16
2022-11-03T20:07:31.576Z,52.70
2022-11-03T20:12:33.904Z,52.35
2022-11-03T20:17:35.780Z,52.53
2022-11-03T20:22:40.725Z,52.91
2022-11-03T20:27:42.615Z,52.88
2022-11-03T20:32:46.143Z,53.06
2022-11-03T20:37:52.440Z,52.96
2022-11-03T20:42:56.965Z,53.23
2022-11-03T20:47:58.929Z,53.05
2022-11-03T20:53:00.821Z,52.83
2022-11-03T20:58:02.637Z,53.04
2022-11-03T21:03:31.422Z,53.19
2022-11-03T21:08:37.138Z,53.20
2022-11-03T21:13:39.046Z,53.09
2022-11-03T21:18:59.403Z,53.63
2022-11-03T21:24:01.315Z,53.48
2022-11-03T21:29:03.262Z,53.27
2022-11-03T21:34:05.223Z,53.41
2022-11-03T21:39:07.039Z,53.08
2022-11-03T21:44:14.979Z,53.00
2022-11-03T21:49:35.607Z,53.29
2022-11-03T21:54:38.323Z,53.12
2022-11-03T21:59:40.189Z,52.89
2022-11-03T22:04:42.447Z,53.05
2022-11-03T22:09:44.296Z,53.34
2022-11-03T22:15:04.458Z,52.99
2022-11-03T22:20:25.109Z,52.93
2022-11-03T22:25:45.632Z,52.88
2022-11-03T22:31:06.433Z,52.87
2022-11-03T22:36:26.067Z,52.48
2022-11-03T22:41:46.836Z,52.80
2022-11-03T22:46:48.524Z,52.63
2022-11-03T22:51:50.327Z,52.73
2022-11-03T22:56:52.681Z,52.95
2022-11-03T23:01:54.645Z,53.53
2022-11-03T23:06:56.548Z,53.68
2022-11-03T23:11:58.357Z,53.49
2022-11-03T23:17:00.157Z,53.70
2022-11-03T23:22:02.028Z,53.88
2022-11-03T23:27:05.198Z,53.86
2022-11-03T23:32:07.244Z,54.02
2022-11-03T23:37:09.119Z,54.09
2022-11-03T23:42:10.924Z,53.89
2022-11-03T23:47:31.499Z,54.56
2022-11-03T23:52:33.318Z,54.29
2022-11-03T23:57:54.419Z,54.46
